Time;durP1;ratioP1;P1;durP2;ratioP2;P2;SDS_P1;SDS_P2;PMS_P1;PMS_P2;Temp;Humidity;BMP_temperature;BMP_pressure;BME280_temperature;BME280_humidity;BME280_pressure;Samples;Min_cycle;Max_cycle;Signal;HPM_P1;HPM_P2
2022/11/10 00:04:39;;;;;;;;;;;11.40;99.90;;;;;;12538655;28;19925;-36
2022/11/10 00:10:56;;;;;;;;;;;11.50;99.90;;;;;;12554735;28;19924;-36
2022/11/10 00:17:01;;;;;;;;;;;11.50;99.90;;;;;;12551004;28;19925;-37
2022/11/10 00:23:03;;;;;;;;;;;11.40;99.90;;;;;;12563327;28;19929;-37
2022/11/10 00:29:04;;;;;;;;;;;11.30;99.90;;;;;;12547690;28;19932;-36
2022/11/10 00:35:06;;;;;;;;;;;11.20;99.90;;;;;;12559025;28;19990;-37
2022/11/10 00:41:08;;;;;;;;;;;11.20;99.90;;;;;;12551689;28;19935;-36
2022/11/10 00:47:10;;;;;;;;;;;11.10;99.90;;;;;;12558875;28;19928;-36
2022/11/10 00:53:11;;;;;;;;;;;10.90;99.90;;;;;;12551353;28;19928;-37
2022/11/10 00:59:13;;;;;;;;;;;10.80;99.90;;;;;;12557644;28;20356;-36
2022/11/10 01:05:15;;;;;;;;;;;10.80;99.90;;;;;;12555702;28;20626;-37
2022/11/10 01:11:18;;;;;;;;;;;10.70;99.90;;;;;;12562083;28;19935;-37
2022/11/10 01:17:20;;;;;;;;;;;10.50;99.90;;;;;;12550956;28;19924;-37
2022/11/10 01:23:21;;;;;;;;;;;10.50;99.90;;;;;;12563102;28;19932;-37
2022/11/10 01:29:24;;;;;;;;;;;10.40;99.90;;;;;;12558202;28;19928;-36
2022/11/10 01:35:25;;;;;;;;;;;10.30;99.90;;;;;;12549556;28;20280;-37
2022/11/10 01:41:27;;;;;;;;;;;10.20;99.90;;;;;;12564850;28;20438;-36
2022/11/10 01:47:29;;;;;;;;;;;10.30;99.90;;;;;;12567232;28;19929;-37
2022/11/10 01:53:33;;;;;;;;;;;10.30;99.90;;;;;;12557755;28;19929;-36
2022/11/10 01:59:37;;;;;;;;;;;10.30;99.90;;;;;;12558154;28;19928;-36
2022/11/10 02:05:39;;;;;;;;;;;10.30;99.90;;;;;;12561367;28;19932;-36
2022/11/10 02:11:42;;;;;;;;;;;10.30;99.90;;;;;;12570083;28;19925;-37
2022/11/10 02:17:45;;;;;;;;;;;10.20;99.90;;;;;;12573082;28;19925;-36
2022/11/10 02:23:51;;;;;;;;;;;10.10;99.90;;;;;;12575540;28;19932;-37
2022/11/10 02:29:53;;;;;;;;;;;10.10;99.90;;;;;;12567923;28;19932;-36
2022/11/10 02:35:55;;;;;;;;;;;10.00;99.90;;;;;;12560549;28;19925;-36
2022/11/10 02:41:56;;;;;;;;;;;10.10;99.90;;;;;;12566800;28;19977;-36
2022/11/10 02:47:58;;;;;;;;;;;10.10;99.90;;;;;;12574519;28;19931;-36
2022/11/10 02:54:00;;;;;;;;;;;10.20;99.90;;;;;;12570865;28;19932;-38
2022/11/10 03:00:02;;;;;;;;;;;10.20;99.90;;;;;;12573133;28;19925;-37
2022/11/10 03:06:04;;;;;;;;;;;10.20;99.90;;;;;;12567044;28;19928;-36
2022/11/10 03:12:06;;;;;;;;;;;10.30;99.90;;;;;;12566439;28;19936;-37
2022/11/10 03:18:07;;;;;;;;;;;10.30;99.90;;;;;;12572385;28;20295;-38
2022/11/10 03:24:09;;;;;;;;;;;10.30;99.90;;;;;;12570119;28;19932;-37
2022/11/10 03:30:11;;;;;;;;;;;10.40;99.90;;;;;;12563381;28;20034;-37
2022/11/10 03:36:12;;;;;;;;;;;10.40;99.90;;;;;;12559771;28;19939;-37
2022/11/10 03:42:14;;;;;;;;;;;10.30;99.90;;;;;;12557912;28;19931;-36
2022/11/10 03:48:16;;;;;;;;;;;10.20;99.90;;;;;;12577904;28;19951;-37
2022/11/10 03:54:17;;;;;;;;;;;10.30;99.90;;;;;;12567105;28;19929;-36
2022/11/10 04:00:20;;;;;;;;;;;10.30;99.90;;;;;;12561552;28;20265;-36
2022/11/10 04:19:03;;;;;;;;;;;10.30;99.90;;;;;;12563695;28;19925;-37
2022/11/10 04:25:05;;;;;;;;;;;10.40;99.90;;;;;;12554612;28;20491;-37
2022/11/10 04:31:07;;;;;;;;;;;10.30;99.90;;;;;;12553063;28;19932;-37
2022/11/10 04:37:09;;;;;;;;;;;10.30;99.90;;;;;;12553332;28;20690;-37
2022/11/10 04:43:10;;;;;;;;;;;10.30;99.90;;;;;;12552769;28;20289;-37
2022/11/10 04:49:12;;;;;;;;;;;10.20;99.90;;;;;;12559320;28;19933;-37
2022/11/10 04:55:14;;;;;;;;;;;10.30;99.90;;;;;;12554696;28;19931;-37
2022/11/10 05:01:18;;;;;;;;;;;10.20;99.90;;;;;;12557132;28;19924;-37
2022/11/10 05:07:19;;;;;;;;;;;10.20;99.90;;;;;;12563767;28;20002;-37
2022/11/10 05:13:21;;;;;;;;;;;10.20;99.90;;;;;;12561990;28;19924;-37
2022/11/10 05:19:23;;;;;;;;;;;10.20;99.90;;;;;;12544476;28;19932;-37
2022/11/10 05:25:25;;;;;;;;;;;10.20;99.90;;;;;;12560750;28;20296;-37
2022/11/10 05:31:29;;;;;;;;;;;10.30;99.90;;;;;;12558816;28;19935;-36
2022/11/10 05:37:30;;;;;;;;;;;10.30;99.90;;;;;;12569672;28;19924;-37
2022/11/10 05:43:32;;;;;;;;;;;10.30;99.90;;;;;;12564756;28;19928;-37
2022/11/10 05:49:34;;;;;;;;;;;10.30;99.90;;;;;;12573781;28;19924;-36
2022/11/10 05:55:35;;;;;;;;;;;10.30;99.90;;;;;;12574342;28;19924;-37
2022/11/10 06:01:37;;;;;;;;;;;10.40;99.90;;;;;;12567371;28;19932;-37
2022/11/10 06:07:39;;;;;;;;;;;10.40;99.90;;;;;;12559198;28;20288;-37
2022/11/10 06:13:41;;;;;;;;;;;10.30;99.90;;;;;;12562665;28;19936;-37
2022/11/10 06:19:42;;;;;;;;;;;10.30;99.90;;;;;;12561786;28;19935;-37
2022/11/10 06:25:44;;;;;;;;;;;10.30;99.90;;;;;;12566224;28;19925;-37
2022/11/10 06:31:46;;;;;;;;;;;10.30;99.90;;;;;;12564074;28;19977;-37
2022/11/10 06:38:00;;;;;;;;;;;10.30;99.90;;;;;;12562324;28;19950;-36
2022/11/10 06:44:01;;;;;;;;;;;10.30;99.90;;;;;;12558740;28;19931;-36
2022/11/10 06:50:03;;;;;;;;;;;10.40;99.90;;;;;;12565831;28;19925;-36
2022/11/10 06:56:05;;;;;;;;;;;10.40;99.90;;;;;;12572468;28;19925;-36
2022/11/10 07:02:12;;;;;;;;;;;10.40;99.90;;;;;;12576920;28;19998;-37
2022/11/10 07:08:15;;;;;;;;;;;10.30;99.90;;;;;;12578811;28;19935;-37
2022/11/10 07:14:17;;;;;;;;;;;10.40;99.90;;;;;;12569639;28;19932;-36
2022/11/10 07:20:18;;;;;;;;;;;10.50;99.90;;;;;;12565136;28;19925;-36
2022/11/10 07:26:20;;;;;;;;;;;10.50;99.90;;;;;;12572292;28;19925;-37
2022/11/10 07:32:22;;;;;;;;;;;10.50;99.90;;;;;;12560081;28;19929;-37
2022/11/10 07:38:24;;;;;;;;;;;10.50;99.90;;;;;;12564561;28;19935;-37
2022/11/10 07:44:26;;;;;;;;;;;10.60;99.90;;;;;;12562243;28;20292;-37
2022/11/10 07:50:28;;;;;;;;;;;10.60;99.90;;;;;;12581737;28;19933;-36
2022/11/10 07:56:30;;;;;;;;;;;10.60;99.90;;;;;;12567500;28;19924;-37
2022/11/10 08:02:31;;;;;;;;;;;10.70;99.90;;;;;;12558748;28;19924;-37
2022/11/10 08:08:33;;;;;;;;;;;10.70;99.90;;;;;;12560266;28;19933;-37
2022/11/10 08:14:35;;;;;;;;;;;10.80;99.90;;;;;;12558390;28;19977;-36
2022/11/10 08:20:37;;;;;;;;;;;10.80;99.90;;;;;;12563098;28;19932;-37
2022/11/10 08:26:38;;;;;;;;;;;10.80;99.90;;;;;;12561705;28;20388;-37
2022/11/10 08:32:40;;;;;;;;;;;10.80;99.90;;;;;;12555939;28;19924;-37
2022/11/10 08:38:42;;;;;;;;;;;10.80;99.90;;;;;;12605886;28;19929;-37
2022/11/10 08:44:43;;;;;;;;;;;10.80;99.90;;;;;;12604317;28;19974;-37
2022/11/10 08:50:46;;;;;;;;;;;11.00;99.90;;;;;;12616164;28;20343;-37
2022/11/10 08:56:47;;;;;;;;;;;11.00;99.90;;;;;;12617007;28;20398;-37
2022/11/10 09:02:49;;;;;;;;;;;11.10;99.90;;;;;;12603058;28;20264;-37
2022/11/10 09:08:51;;;;;;;;;;;11.20;99.90;;;;;;12622889;28;20280;-37
2022/11/10 09:14:53;;;;;;;;;;;11.30;99.90;;;;;;12623326;28;19924;-37
2022/11/10 09:20:55;;;;;;;;;;;11.30;99.90;;;;;;12612714;28;20319;-37
2022/11/10 09:26:57;;;;;;;;;;;11.30;99.90;;;;;;12590493;28;19924;-37
2022/11/10 09:32:59;;;;;;;;;;;11.50;99.90;;;;;;12611311;28;20303;-37
2022/11/10 09:39:01;;;;;;;;;;;11.60;99.90;;;;;;12601123;28;19928;-36
2022/11/10 09:45:09;;;;;;;;;;;11.80;99.90;;;;;;12602909;28;19924;-37
2022/11/10 09:51:15;;;;;;;;;;;11.90;99.90;;;;;;12628815;28;20014;-37
2022/11/10 09:57:19;;;;;;;;;;;12.00;99.90;;;;;;12633204;28;19936;-37
2022/11/10 10:03:24;;;;;;;;;;;12.40;99.90;;;;;;12619136;28;19932;-37
2022/11/10 10:09:37;;;;;;;;;;;12.50;99.90;;;;;;12616708;28;19924;-37
2022/11/10 10:15:58;;;;;;;;;;;12.70;99.90;;;;;;12612299;28;19940;-37
2022/11/10 10:22:18;;;;;;;;;;;12.70;99.90;;;;;;12611006;28;20279;-37
2022/11/10 10:28:36;;;;;;;;;;;13.00;99.90;;;;;;12621297;28;19928;-37
2022/11/10 10:34:38;;;;;;;;;;;13.20;99.90;;;;;;12610342;28;19924;-37
2022/11/10 10:40:41;;;;;;;;;;;13.50;99.90;;;;;;12610302;28;20339;-37
2022/11/10 10:46:54;;;;;;;;;;;13.60;99.90;;;;;;12611933;28;19924;-37
2022/11/10 10:53:27;;;;;;;;;;;13.70;99.90;;;;;;12617856;28;19924;-37
2022/11/10 10:59:29;;;;;;;;;;;13.70;99.90;;;;;;12562421;28;20292;-37
2022/11/10 11:05:31;;;;;;;;;;;13.90;99.90;;;;;;12608526;28;19932;-36
2022/11/10 11:11:38;;;;;;;;;;;14.00;99.90;;;;;;12629916;28;20372;-37
2022/11/10 11:17:52;;;;;;;;;;;13.90;99.90;;;;;;12607210;28;19935;-37
2022/11/10 11:23:59;;;;;;;;;;;13.90;99.90;;;;;;12588095;28;20376;-37
2022/11/10 11:30:03;;;;;;;;;;;13.70;99.90;;;;;;12627759;28;19925;-36
2022/11/10 11:36:11;;;;;;;;;;;13.70;99.90;;;;;;12619579;28;20614;-36
2022/11/10 11:42:36;;;;;;;;;;;13.50;99.90;;;;;;12610685;28;19987;-37
2022/11/10 11:49:01;;;;;;;;;;;13.40;99.90;;;;;;12617904;28;20283;-37
2022/11/10 11:55:12;;;;;;;;;;;13.40;99.90;;;;;;12614780;28;19935;-36
2022/11/10 12:01:32;;;;;;;;;;;13.40;99.90;;;;;;12608634;28;19924;-37
2022/11/10 12:07:57;;;;;;;;;;;13.40;99.90;;;;;;12612939;28;20322;-37
2022/11/10 12:14:05;;;;;;;;;;;13.80;99.90;;;;;;12605140;28;19977;-37
2022/11/10 12:20:22;;;;;;;;;;;14.00;99.90;;;;;;12617538;28;19932;-37
2022/11/10 12:26:56;;;;;;;;;;;14.30;99.90;;;;;;12569358;28;19936;-37
2022/11/10 12:33:00;;;;;;;;;;;14.50;99.90;;;;;;12577813;28;20303;-36
2022/11/10 12:39:05;;;;;;;;;;;14.10;99.90;;;;;;12617523;28;19924;-37
2022/11/10 12:45:17;;;;;;;;;;;14.10;99.90;;;;;;12601202;28;19931;-37
2022/11/10 12:51:23;;;;;;;;;;;14.10;99.90;;;;;;12606826;28;19968;-37
2022/11/10 12:57:26;;;;;;;;;;;14.40;99.90;;;;;;12602148;28;19975;-36
2022/11/10 13:03:34;;;;;;;;;;;14.40;99.90;;;;;;12600799;28;19974;-37
2022/11/10 13:09:44;;;;;;;;;;;14.20;99.90;;;;;;12613628;28;19989;-37
2022/11/10 13:15:56;;;;;;;;;;;14.10;99.90;;;;;;12606152;28;20364;-37
2022/11/10 13:22:03;;;;;;;;;;;14.10;99.90;;;;;;12616947;28;19931;-37
2022/11/10 13:28:07;;;;;;;;;;;14.20;99.90;;;;;;12608601;28;19924;-37
2022/11/10 13:34:17;;;;;;;;;;;14.20;99.90;;;;;;12600800;28;20003;-37
2022/11/10 13:40:22;;;;;;;;;;;14.10;99.90;;;;;;12613486;28;20092;-37
2022/11/10 13:46:35;;;;;;;;;;;14.00;99.90;;;;;;12583628;28;20364;-37
2022/11/10 13:52:50;;;;;;;;;;;14.00;99.90;;;;;;12620935;28;20018;-36
2022/11/10 13:58:52;;;;;;;;;;;14.00;99.90;;;;;;12621145;28;19928;-37
2022/11/10 14:04:54;;;;;;;;;;;14.00;99.90;;;;;;12620967;28;19925;-37
2022/11/10 14:11:01;;;;;;;;;;;13.90;99.90;;;;;;12614306;28;19939;-38
2022/11/10 14:17:03;;;;;;;;;;;13.80;99.90;;;;;;12629577;28;20379;-37
2022/11/10 14:23:05;;;;;;;;;;;13.70;99.90;;;;;;12608860;28;19939;-36
2022/11/10 14:29:39;;;;;;;;;;;13.60;99.90;;;;;;12599157;28;19928;-37
2022/11/10 14:35:47;;;;;;;;;;;13.50;99.90;;;;;;12577027;28;20375;-37
2022/11/10 14:41:50;;;;;;;;;;;13.50;99.90;;;;;;12615739;28;19924;-38
2022/11/10 14:47:55;;;;;;;;;;;13.40;99.90;;;;;;12622169;28;19925;-37
2022/11/10 14:53:57;;;;;;;;;;;13.40;99.90;;;;;;12615259;28;19924;-37
2022/11/10 14:59:59;;;;;;;;;;;13.50;99.90;;;;;;12596534;28;20030;-37
2022/11/10 15:06:01;;;;;;;;;;;13.40;99.90;;;;;;12609614;28;19928;-37
2022/11/10 15:12:06;;;;;;;;;;;13.30;99.90;;;;;;12609946;28;19931;-38
2022/11/10 15:18:40;;;;;;;;;;;13.20;99.90;;;;;;12612339;28;19925;-37
2022/11/10 15:24:43;;;;;;;;;;;13.10;99.90;;;;;;12564464;28;19924;-36
2022/11/10 15:30:51;;;;;;;;;;;13.00;99.90;;;;;;12604003;28;20344;-37
2022/11/10 15:37:20;;;;;;;;;;;13.00;99.90;;;;;;12615170;28;19924;-37
2022/11/10 15:43:26;;;;;;;;;;;12.90;99.90;;;;;;12619144;28;19931;-36
2022/11/10 15:49:33;;;;;;;;;;;12.80;99.90;;;;;;12625914;28;20014;-37
2022/11/10 15:55:35;;;;;;;;;;;12.70;99.90;;;;;;12613918;28;20341;-37
2022/11/10 16:01:37;;;;;;;;;;;12.50;99.90;;;;;;12606965;28;19925;-37
2022/11/10 16:07:39;;;;;;;;;;;12.40;99.90;;;;;;12596652;28;19924;-37
2022/11/10 16:13:40;;;;;;;;;;;12.30;99.90;;;;;;12595029;28;19932;-37
2022/11/10 16:19:42;;;;;;;;;;;12.20;99.90;;;;;;12606317;28;19932;-36
2022/11/10 16:25:45;;;;;;;;;;;12.10;99.90;;;;;;12606937;28;19924;-37
2022/11/10 16:31:48;;;;;;;;;;;12.00;99.90;;;;;;12596185;28;19928;-37
2022/11/10 16:37:50;;;;;;;;;;;12.00;99.90;;;;;;12608721;28;19928;-37
2022/11/10 16:43:53;;;;;;;;;;;12.10;99.90;;;;;;12611054;28;20386;-37
2022/11/10 16:49:55;;;;;;;;;;;12.10;99.90;;;;;;12608396;28;20474;-37
2022/11/10 16:55:57;;;;;;;;;;;12.00;99.90;;;;;;12615083;28;19932;-37
2022/11/10 17:01:59;;;;;;;;;;;11.90;99.90;;;;;;12597710;28;19946;-37
2022/11/10 17:08:02;;;;;;;;;;;12.00;99.90;;;;;;12612359;28;19935;-37
2022/11/10 17:14:05;;;;;;;;;;;12.00;99.90;;;;;;12613236;28;20303;-37
2022/11/10 17:20:09;;;;;;;;;;;12.00;99.90;;;;;;12608987;28;19924;-37
2022/11/10 17:26:11;;;;;;;;;;;12.00;99.90;;;;;;12557134;28;20299;-37
2022/11/10 17:32:13;;;;;;;;;;;12.00;99.90;;;;;;12608360;28;19931;-37
2022/11/10 17:38:22;;;;;;;;;;;12.00;99.90;;;;;;12621971;28;19928;-37
2022/11/10 17:44:24;;;;;;;;;;;11.90;99.90;;;;;;12620352;28;20383;-37
2022/11/10 17:50:26;;;;;;;;;;;11.90;99.90;;;;;;12626430;28;19925;-37
2022/11/10 17:56:28;;;;;;;;;;;11.80;99.90;;;;;;12605407;28;19925;-39
2022/11/10 18:02:30;;;;;;;;;;;11.80;99.90;;;;;;12616238;28;20009;-37
2022/11/10 18:08:32;;;;;;;;;;;11.70;99.90;;;;;;12609906;28;19939;-37
2022/11/10 18:14:33;;;;;;;;;;;11.60;99.90;;;;;;12618796;28;20275;-37
2022/11/10 18:20:35;;;;;;;;;;;11.50;99.90;;;;;;12608828;28;19924;-37
2022/11/10 18:26:37;;;;;;;;;;;11.50;99.90;;;;;;12615622;28;19929;-37
2022/11/10 18:32:38;;;;;;;;;;;11.60;99.90;;;;;;12620386;28;19925;-37
2022/11/10 18:38:40;;;;;;;;;;;11.50;99.90;;;;;;12607498;28;20440;-37
2022/11/10 18:44:42;;;;;;;;;;;11.50;99.90;;;;;;12605341;28;19932;-37
2022/11/10 18:50:44;;;;;;;;;;;11.50;99.90;;;;;;12618514;28;20330;-37
2022/11/10 18:56:46;;;;;;;;;;;11.50;99.90;;;;;;12611723;28;20369;-37
2022/11/10 19:02:47;;;;;;;;;;;11.50;99.90;;;;;;12607328;28;19931;-37
2022/11/10 19:08:49;;;;;;;;;;;11.40;99.90;;;;;;12618003;28;19958;-37
2022/11/10 19:14:51;;;;;;;;;;;11.30;99.90;;;;;;12624423;28;19935;-37
2022/11/10 19:20:53;;;;;;;;;;;11.20;99.90;;;;;;12598668;28;19928;-37
2022/11/10 19:26:54;;;;;;;;;;;11.10;99.90;;;;;;12604112;28;19932;-37
2022/11/10 19:32:56;;;;;;;;;;;11.20;99.90;;;;;;12601412;28;19928;-37
2022/11/10 19:38:58;;;;;;;;;;;11.10;99.90;;;;;;12617343;28;19928;-38
2022/11/10 19:45:00;;;;;;;;;;;11.00;99.90;;;;;;12607500;28;20402;-37
2022/11/10 19:51:03;;;;;;;;;;;11.00;99.90;;;;;;12614547;28;19950;-37
2022/11/10 19:57:05;;;;;;;;;;;10.90;99.90;;;;;;12617082;28;19981;-37
2022/11/10 20:03:10;;;;;;;;;;;10.80;99.90;;;;;;12623658;28;19974;-37
2022/11/10 20:09:11;;;;;;;;;;;10.90;99.90;;;;;;12611948;28;19925;-38
2022/11/10 20:15:13;;;;;;;;;;;10.90;99.90;;;;;;12609115;28;19924;-37
2022/11/10 20:21:16;;;;;;;;;;;10.90;99.90;;;;;;12601406;28;19924;-37
2022/11/10 20:27:18;;;;;;;;;;;10.90;99.90;;;;;;12612462;28;19976;-37
2022/11/10 20:33:20;;;;;;;;;;;10.90;99.90;;;;;;12612385;28;20395;-37
2022/11/10 20:39:22;;;;;;;;;;;10.80;99.90;;;;;;12597355;28;20014;-37
2022/11/10 20:45:23;;;;;;;;;;;10.80;99.90;;;;;;12611729;28;19928;-37
2022/11/10 20:51:25;;;;;;;;;;;10.80;99.90;;;;;;12605381;28;19925;-37
2022/11/10 20:57:27;;;;;;;;;;;10.80;99.90;;;;;;12611512;28;19935;-37
2022/11/10 21:03:29;;;;;;;;;;;10.80;99.90;;;;;;12613198;28;19940;-37
2022/11/10 21:09:31;;;;;;;;;;;10.70;99.90;;;;;;12609019;28;19939;-37
2022/11/10 21:15:35;;;;;;;;;;;10.70;99.90;;;;;;12608774;28;20390;-37
2022/11/10 21:21:37;;;;;;;;;;;10.60;99.90;;;;;;12628027;28;19934;-38
2022/11/10 21:27:39;;;;;;;;;;;10.60;99.90;;;;;;12612660;28;20057;-38
2022/11/10 21:33:40;;;;;;;;;;;10.60;99.90;;;;;;12614160;28;19924;-37
2022/11/10 21:39:42;;;;;;;;;;;10.60;99.90;;;;;;12609989;28;19925;-37
2022/11/10 21:45:44;;;;;;;;;;;10.60;99.90;;;;;;12616947;28;19924;-37
2022/11/10 21:51:46;;;;;;;;;;;10.50;99.90;;;;;;12615019;28;19928;-37
2022/11/10 21:57:53;;;;;;;;;;;10.50;99.90;;;;;;12612123;28;20303;-37
2022/11/10 22:03:55;;;;;;;;;;;10.50;99.90;;;;;;12602706;28;19928;-37
2022/11/10 22:22:37;;;;;;;;;;;10.40;99.90;;;;;;12607106;28;19924;-37
2022/11/10 22:28:39;;;;;;;;;;;10.30;99.90;;;;;;12616260;28;19932;-37
2022/11/10 22:34:41;;;;;;;;;;;10.30;99.90;;;;;;12610123;28;19932;-37
2022/11/10 22:47:03;;;;;;;;;;;10.30;99.90;;;;;;12616574;28;19924;-37
2022/11/10 22:53:05;;;;;;;;;;;10.20;99.90;;;;;;12623697;28;19924;-37
2022/11/10 22:59:07;;;;;;;;;;;10.20;99.90;;;;;;12614602;28;19924;-38
2022/11/10 23:05:08;;;;;;;;;;;10.10;99.90;;;;;;12613762;28;20337;-37
2022/11/10 23:11:11;;;;;;;;;;;10.10;99.90;;;;;;12616596;28;19932;-37
2022/11/10 23:17:13;;;;;;;;;;;10.10;99.90;;;;;;12612322;28;20003;-38
2022/11/10 23:23:15;;;;;;;;;;;10.00;99.90;;;;;;12608723;28;20372;-37
2022/11/10 23:29:16;;;;;;;;;;;10.00;99.90;;;;;;12624542;28;19924;-37
2022/11/10 23:35:18;;;;;;;;;;;10.00;99.90;;;;;;12614899;28;19924;-37
2022/11/10 23:41:22;;;;;;;;;;;10.00;99.90;;;;;;12607866;28;19977;-38
2022/11/10 23:47:24;;;;;;;;;;;10.10;99.90;;;;;;12608174;28;19928;-37
2022/11/10 23:53:25;;;;;;;;;;;9.90;99.90;;;;;;12619475;28;20065;-37
2022/11/10 23:59:27;;;;;;;;;;;10.00;99.90;;;;;;12617716;28;19924;-37
